Vega Nikolas — A8QD2 — position and weather

sailwx.info

Track history (hours):
 
Tides and Currents Weather Stations Pressure Air Temp Water Temp Dewpoint Dewpoint Depression Visibility Wind Speed Wind Dir Waves Ship Positions

Vega Nikolas

Last reported at 2014-Aug-21 19:27 UTC. Time now 2014-Sep-01 11:15 UTC.
Position N 35°42' W 071°03'.
Warning: this ship's position is 10 days out of date.

Length 139 m; draft 7.9 m.

Type: Ship (hazmat cat A). MMSI: 636091613.

Date/timePositionNaut miles runAvg speedWind from/ knotsBaromVisibWave heightAir tempDewpointWater temp
2014-Aug-21 19:27N 35°42' W 071°03'1714.7
2014-Aug-21 18:18N 35°59' W 071°04'1114.3
2014-Aug-21 17:33N 36°10' W 071°04'1414.1
2014-Aug-21 16:33N 36°24' W 071°05'3214.8
2014-Aug-21 14:22N 36°56' W 071°07'1315.5
2014-Aug-21 13:33N 37°09' W 071°08'1515.0
2014-Aug-21 12:33N 37°23' W 071°12'1515.4
2014-Aug-21 11:33N 37°37' W 071°20'1615.8
2014-Aug-21 10:33N 37°51' W 071°30'1616.2
2014-Aug-21 09:33N 38°05' W 071°40'1615.9
2014-Aug-21 08:33N 38°19' W 071°49'1616.2
2014-Aug-21 07:33N 38°34' W 071°59'1616.4
2014-Aug-21 06:33N 38°48' W 072°09'1616.1
2014-Aug-21 05:33N 39°02' W 072°19'1615.9
2014-Aug-21 04:33N 39°15' W 072°32'1515.4
2014-Aug-21 03:33N 39°26' W 072°45'1615.4
2014-Aug-21 02:33N 39°38' W 072°59'1715.7
2014-Aug-21 01:28N 39°52' W 073°12'1615.7
2014-Aug-21 00:27N 40°04' W 073°24'1415.6
2014-Aug-20 23:33N 40°15' W 073°36'1615.4
2014-Aug-20 22:32N 40°27' W 073°49'1412.9
2014-Aug-20 21:26N 40°37' W 074°03'5 4.9
2014-Aug-20 20:29N 40°41' W 074°01'0 0.0
2014-Aug-20 19:31N 40°41' W 074°01'0 0.0
2014-Aug-20 18:25N 40°41' W 074°01'0 0.0
2014-Aug-20 17:31N 40°41' W 074°01'0 0.0
2014-Aug-20 16:31N 40°41' W 074°01'0 0.0
2014-Aug-20 15:31N 40°41' W 074°01'0 0.0
2014-Aug-20 14:31N 40°41' W 074°01'0 0.0
2014-Aug-20 13:31N 40°41' W 074°01'0 0.0
2014-Aug-20 12:31N 40°41' W 074°01'0 0.0
2014-Aug-20 11:31N 40°41' W 074°01'0 0.0
2014-Aug-20 10:31N 40°41' W 074°01'3 2.6
2014-Aug-20 09:33N 40°39' W 074°03'9 9.2
2014-Aug-20 08:33N 40°31' W 073°59'1111.1
2014-Aug-20 07:33N 40°26' W 073°46'1111.1
2014-Aug-20 06:33N 40°19' W 073°35'1313.0
2014-Aug-20 05:34N 40°11' W 073°21'1313.3
2014-Aug-20 04:33N 40°01' W 073°09'1413.7
2014-Aug-20 03:33N 39°50' W 072°58'1413.7
2014-Aug-20 02:34N 39°39' W 072°48'1413.5
2014-Aug-20 01:33N 39°27' W 072°39'1413.6
2014-Aug-20 00:33N 39°16' W 072°30'1414.3
2014-Aug-19 23:33N 39°04' W 072°20'1514.5
2014-Aug-19 22:33N 38°51' W 072°10'1414.2
2014-Aug-19 21:34N 38°39' W 072°02'1413.9
2014-Aug-19 20:32N 38°26' W 071°54'  
Track history (hours):
 
Tides and Currents Weather Stations Pressure Air Temp Water Temp Dewpoint Dewpoint Depression Visibility Wind Speed Wind Dir Waves Ship Positions

Vega Nikolas

Last reported at 2014-Aug-21 19:27 UTC. Time now 2014-Sep-01 11:15 UTC.
Position N 35°42' W 071°03'.
Warning: this ship's position is 10 days out of date.

Length 139 m; draft 7.9 m.

Type: Ship (hazmat cat A). MMSI: 636091613.

Date/timePositionNaut miles runAvg speedWind from/ knotsBaromVisibWave heightAir tempDewpointWater temp
2014-Aug-21 19:27N 35°42' W 071°03'1714.7
2014-Aug-21 18:18N 35°59' W 071°04'1114.3
2014-Aug-21 17:33N 36°10' W 071°04'1414.1
2014-Aug-21 16:33N 36°24' W 071°05'3214.8
2014-Aug-21 14:22N 36°56' W 071°07'1315.5
2014-Aug-21 13:33N 37°09' W 071°08'1515.0
2014-Aug-21 12:33N 37°23' W 071°12'1515.4
2014-Aug-21 11:33N 37°37' W 071°20'1615.8
2014-Aug-21 10:33N 37°51' W 071°30'1616.2
2014-Aug-21 09:33N 38°05' W 071°40'1615.9
2014-Aug-21 08:33N 38°19' W 071°49'1616.2
2014-Aug-21 07:33N 38°34' W 071°59'1616.4
2014-Aug-21 06:33N 38°48' W 072°09'1616.1
2014-Aug-21 05:33N 39°02' W 072°19'1615.9
2014-Aug-21 04:33N 39°15' W 072°32'1515.4
2014-Aug-21 03:33N 39°26' W 072°45'1615.4
2014-Aug-21 02:33N 39°38' W 072°59'1715.7
2014-Aug-21 01:28N 39°52' W 073°12'1615.7
2014-Aug-21 00:27N 40°04' W 073°24'1415.6
2014-Aug-20 23:33N 40°15' W 073°36'1615.4
2014-Aug-20 22:32N 40°27' W 073°49'1412.9
2014-Aug-20 21:26N 40°37' W 074°03'5 4.9
2014-Aug-20 20:29N 40°41' W 074°01'0 0.0
2014-Aug-20 19:31N 40°41' W 074°01'0 0.0
2014-Aug-20 18:25N 40°41' W 074°01'0 0.0
2014-Aug-20 17:31N 40°41' W 074°01'0 0.0
2014-Aug-20 16:31N 40°41' W 074°01'0 0.0
2014-Aug-20 15:31N 40°41' W 074°01'0 0.0
2014-Aug-20 14:31N 40°41' W 074°01'0 0.0
2014-Aug-20 13:31N 40°41' W 074°01'0 0.0
2014-Aug-20 12:31N 40°41' W 074°01'0 0.0
2014-Aug-20 11:31N 40°41' W 074°01'0 0.0
2014-Aug-20 10:31N 40°41' W 074°01'3 2.6
2014-Aug-20 09:33N 40°39' W 074°03'9 9.2
2014-Aug-20 08:33N 40°31' W 073°59'1111.1
2014-Aug-20 07:33N 40°26' W 073°46'1111.1
2014-Aug-20 06:33N 40°19' W 073°35'1313.0
2014-Aug-20 05:34N 40°11' W 073°21'1313.3
2014-Aug-20 04:33N 40°01' W 073°09'1413.7
2014-Aug-20 03:33N 39°50' W 072°58'1413.7
2014-Aug-20 02:34N 39°39' W 072°48'1413.5
2014-Aug-20 01:33N 39°27' W 072°39'1413.6
2014-Aug-20 00:33N 39°16' W 072°30'1414.3
2014-Aug-19 23:33N 39°04' W 072°20'1514.5
2014-Aug-19 22:33N 38°51' W 072°10'1414.2
2014-Aug-19 21:34N 38°39' W 072°02'1413.9
2014-Aug-19 20:32N 38°26' W 071°54'  

Dump ship's entire track history